createdAt,value
2016-11-17T00:00:42.426Z,19.6
2016-11-17T00:01:55.472Z,19.71
2016-11-17T00:03:07.982Z,19.63
2016-11-17T00:04:19.464Z,19.62
2016-11-17T00:05:31.440Z,19.57
2016-11-17T00:06:44.485Z,19.54
2016-11-17T00:07:56.936Z,19.6
2016-11-17T00:09:09.427Z,19.52
2016-11-17T00:10:21.979Z,19.52
2016-11-17T00:11:35.062Z,19.62
2016-11-17T00:12:47.607Z,19.59
2016-11-17T00:14:00.632Z,19.59
2016-11-17T00:15:13.098Z,19.57
2016-11-17T00:16:26.161Z,19.57
2016-11-17T00:17:38.679Z,19.62
2016-11-17T00:18:51.191Z,19.63
2016-11-17T00:20:03.869Z,19.71
2016-11-17T00:21:16.352Z,19.63
2016-11-17T00:22:29.469Z,19.7
2016-11-17T00:23:43.118Z,19.71
2016-11-17T00:24:56.623Z,19.74
2016-11-17T00:26:09.175Z,19.86
2016-11-17T00:27:21.885Z,19.84
2016-11-17T00:28:34.917Z,19.92
2016-11-17T00:29:47.500Z,19.86
2016-11-17T00:31:00.619Z,19.92
2016-11-17T00:32:13.090Z,19.94
2016-11-17T00:33:26.254Z,19.96
2016-11-17T00:34:39.395Z,19.94
2016-11-17T00:35:51.341Z,19.94
2016-11-17T00:37:02.854Z,20
2016-11-17T00:38:16.408Z,19.99
2016-11-17T00:39:28.903Z,20.02
2016-11-17T00:40:40.373Z,19.99
2016-11-17T00:41:53.503Z,20.07
2016-11-17T00:43:06.490Z,20
2016-11-17T00:44:18.565Z,19.92
2016-11-17T00:45:31.663Z,19.94
2016-11-17T00:46:44.743Z,20
2016-11-17T00:47:56.725Z,19.93
2016-11-17T00:49:09.252Z,19.92
2016-11-17T00:50:21.793Z,19.92
2016-11-17T00:51:34.856Z,19.87
2016-11-17T00:52:47.965Z,19.92
2016-11-17T00:54:00.578Z,19.79
2016-11-17T00:55:14.200Z,19.78
2016-11-17T00:56:26.272Z,19.86
2016-11-17T00:57:39.415Z,19.89
2016-11-17T00:58:51.356Z,19.87
2016-11-17T01:00:04.420Z,19.81
2016-11-17T01:01:17.501Z,19.87
2016-11-17T01:02:29.517Z,19.84
2016-11-17T01:03:41.096Z,19.75
2016-11-17T01:04:53.617Z,19.74
2016-11-17T01:06:07.220Z,19.75
2016-11-17T01:07:20.274Z,19.62
2016-11-17T01:08:33.316Z,19.54
2016-11-17T01:09:45.858Z,19.52
2016-11-17T01:10:59.452Z,19.56
2016-11-17T01:12:13.059Z,19.49
2016-11-17T01:13:26.576Z,19.49
2016-11-17T01:14:38.533Z,19.62
2016-11-17T01:15:51.631Z,19.49
2016-11-17T01:17:04.139Z,19.56
2016-11-17T01:18:17.709Z,19.49
2016-11-17T01:19:30.727Z,19.6
2016-11-17T01:20:43.828Z,19.49
2016-11-17T01:21:56.885Z,19.62
2016-11-17T01:23:10.038Z,19.5
2016-11-17T01:24:23.096Z,19.5
2016-11-17T01:25:36.224Z,19.52
2016-11-17T01:26:48.819Z,19.54
2016-11-17T01:28:01.880Z,19.5
2016-11-17T01:29:14.956Z,19.59
2016-11-17T01:30:27.523Z,19.62
2016-11-17T01:31:40.604Z,19.59
2016-11-17T01:32:53.154Z,19.72
2016-11-17T01:34:06.756Z,19.78
2016-11-17T01:35:20.503Z,19.77
2016-11-17T01:36:34.230Z,19.86
2016-11-17T01:37:46.250Z,19.82
2016-11-17T01:38:59.808Z,19.77
2016-11-17T01:40:11.239Z,19.79
2016-11-17T01:41:24.281Z,19.89
2016-11-17T01:43:08.999Z,19.96
2016-11-17T01:44:21.999Z,19.92
2016-11-17T01:45:35.039Z,19.92
2016-11-17T01:46:47.630Z,19.96
2016-11-17T01:48:00.628Z,19.97
2016-11-17T01:49:14.169Z,20.05
2016-11-17T01:50:26.698Z,20.17
2016-11-17T01:51:40.173Z,20.12
2016-11-17T01:52:53.146Z,20.09
2016-11-17T01:54:06.646Z,20.12
2016-11-17T01:55:19.717Z,20.15
2016-11-17T01:56:32.772Z,20.11
2016-11-17T01:57:46.331Z,20.15
2016-11-17T01:58:59.399Z,20.04
2016-11-17T02:00:11.895Z,20
2016-11-17T02:01:24.440Z,20.02
2016-11-17T02:02:38.028Z,19.94
2016-11-17T02:03:50.486Z,19.94
2016-11-17T02:05:02.943Z,19.9
2016-11-17T02:06:15.911Z,19.94
2016-11-17T02:07:28.450Z,19.89
2016-11-17T02:08:41.518Z,19.81
2016-11-17T02:09:54.025Z,19.79
2016-11-17T02:11:06.540Z,19.84
2016-11-17T02:12:18.543Z,19.86
2016-11-17T02:13:31.066Z,19.79
2016-11-17T02:14:43.582Z,19.75
2016-11-17T02:15:57.190Z,19.75
2016-11-17T02:17:10.190Z,19.71
2016-11-17T02:18:23.275Z,19.67
2016-11-17T02:19:36.365Z,19.57
2016-11-17T02:20:48.902Z,19.52
2016-11-17T02:22:02.483Z,19.52
2016-11-17T02:23:16.051Z,19.45
2016-11-17T02:24:27.500Z,19.45
2016-11-17T02:25:40.030Z,19.38
2016-11-17T02:26:53.018Z,19.38
2016-11-17T02:28:06.555Z,19.56
2016-11-17T02:29:18.540Z,19.53
2016-11-17T02:30:31.552Z,19.56
2016-11-17T02:31:43.038Z,19.49
2016-11-17T02:32:55.545Z,19.47
2016-11-17T02:34:08.072Z,19.5
2016-11-17T02:35:19.980Z,19.5
2016-11-17T02:36:31.936Z,19.59
2016-11-17T02:37:45.005Z,19.5
2016-11-17T02:38:58.035Z,19.45
2016-11-17T02:40:10.509Z,19.57
2016-11-17T02:41:23.529Z,19.53
2016-11-17T02:42:36.597Z,19.49
2016-11-17T02:43:49.634Z,19.59
2016-11-17T02:45:01.643Z,19.63
2016-11-17T02:46:14.061Z,19.62
2016-11-17T02:47:27.605Z,19.6
2016-11-17T02:48:41.168Z,19.64
2016-11-17T02:49:54.243Z,19.62
2016-11-17T02:51:07.324Z,19.62
2016-11-17T02:52:20.416Z,19.57
2016-11-17T02:53:32.924Z,19.57
2016-11-17T02:54:45.440Z,19.56
2016-11-17T02:55:57.398Z,19.57
2016-11-17T02:57:09.355Z,19.53
2016-11-17T02:58:22.951Z,19.49
2016-11-17T02:59:36.525Z,19.49
2016-11-17T03:00:49.057Z,19.54
2016-11-17T03:02:01.613Z,19.45
2016-11-17T03:03:14.141Z,19.49
2016-11-17T03:04:27.201Z,19.56
2016-11-17T03:05:38.604Z,19.59
2016-11-17T03:06:50.635Z,19.59
2016-11-17T03:08:04.226Z,19.59
2016-11-17T03:09:17.298Z,19.6
2016-11-17T03:10:29.241Z,19.6
2016-11-17T03:11:41.214Z,19.7
2016-11-17T03:12:53.690Z,19.71
2016-11-17T03:14:06.759Z,19.71
2016-11-17T03:15:19.830Z,19.72
2016-11-17T03:16:32.930Z,19.72
2016-11-17T03:17:44.849Z,19.72
2016-11-17T03:18:56.860Z,19.81
2016-11-17T03:20:07.819Z,19.79
2016-11-17T03:21:20.337Z,19.79
2016-11-17T03:22:33.369Z,19.68
2016-11-17T03:23:45.928Z,19.74
2016-11-17T03:24:58.387Z,19.7
2016-11-17T03:26:10.870Z,19.6
2016-11-17T03:27:24.427Z,19.68
2016-11-17T03:28:36.900Z,19.64
2016-11-17T03:29:49.442Z,19.71
2016-11-17T03:31:02.997Z,19.67
2016-11-17T03:32:47.123Z,19.71
2016-11-17T03:34:00.125Z,19.68
2016-11-17T03:35:13.707Z,19.72
2016-11-17T03:36:27.252Z,19.74
2016-11-17T03:37:40.338Z,19.6
2016-11-17T03:38:52.843Z,19.59
2016-11-17T03:40:06.418Z,19.57
2016-11-17T03:41:20.037Z,19.63
2016-11-17T03:42:31.970Z,19.56
2016-11-17T03:44:16.649Z,19.57
2016-11-17T03:45:29.697Z,19.53
2016-11-17T03:46:42.779Z,19.54
2016-11-17T03:47:55.819Z,19.56
2016-11-17T03:49:08.865Z,19.56
2016-11-17T03:50:20.838Z,19.59
2016-11-17T03:51:32.851Z,19.41
2016-11-17T03:52:44.803Z,19.42
2016-11-17T03:53:57.479Z,19.56
2016-11-17T03:55:11.012Z,19.56
2016-11-17T03:56:24.640Z,19.49
2016-11-17T03:57:37.721Z,19.53
2016-11-17T03:58:50.262Z,19.5
2016-11-17T04:00:02.235Z,19.59
2016-11-17T04:01:15.226Z,19.5
2016-11-17T04:02:28.294Z,19.52
2016-11-17T04:03:40.820Z,19.49
2016-11-17T04:04:53.363Z,19.5
2016-11-17T04:06:06.965Z,19.47
2016-11-17T04:07:20.517Z,19.44
2016-11-17T04:08:33.111Z,19.49
2016-11-17T04:09:45.668Z,19.45
2016-11-17T04:10:58.138Z,19.5
2016-11-17T04:12:11.204Z,19.53
2016-11-17T04:13:24.766Z,19.5
2016-11-17T04:14:37.308Z,19.5
2016-11-17T04:16:20.885Z,19.52
2016-11-17T04:17:33.895Z,19.5
2016-11-17T04:18:46.941Z,19.54
2016-11-17T04:19:59.408Z,19.49
2016-11-17T04:21:11.405Z,19.57
2016-11-17T04:22:23.902Z,19.5
2016-11-17T04:23:36.956Z,19.6
2016-11-17T04:24:49.991Z,19.59
2016-11-17T04:26:02.509Z,19.64
2016-11-17T04:27:14.956Z,19.56
2016-11-17T04:28:28.001Z,19.57
2016-11-17T04:29:41.108Z,19.59
2016-11-17T04:30:54.661Z,19.59
2016-11-17T04:32:07.157Z,19.52
2016-11-17T04:33:19.203Z,19.56
2016-11-17T04:34:31.693Z,19.62
2016-11-17T04:35:44.767Z,19.57
2016-11-17T04:36:57.730Z,19.59
2016-11-17T04:38:10.789Z,19.57
2016-11-17T04:39:23.344Z,19.64
2016-11-17T04:40:35.818Z,19.6
2016-11-17T04:41:49.345Z,19.6
2016-11-17T04:43:01.886Z,19.6
2016-11-17T04:44:14.455Z,19.62
2016-11-17T04:45:28.018Z,19.62
2016-11-17T04:46:41.081Z,19.68
2016-11-17T04:48:24.695Z,19.62
2016-11-17T04:49:37.714Z,19.64
2016-11-17T04:50:50.742Z,19.71
2016-11-17T04:52:03.778Z,19.71
2016-11-17T04:53:16.283Z,19.75
2016-11-17T04:54:28.283Z,19.6
2016-11-17T04:55:40.807Z,19.74
2016-11-17T04:56:54.343Z,19.71
2016-11-17T04:58:06.825Z,19.62
2016-11-17T04:59:19.833Z,19.64
2016-11-17T05:00:32.355Z,19.64
2016-11-17T05:03:30.601Z,19.57
2016-11-17T05:04:44.189Z,19.59
2016-11-17T05:05:57.192Z,19.59
2016-11-17T05:07:10.772Z,19.57
2016-11-17T05:08:23.279Z,19.54
2016-11-17T05:09:36.796Z,19.5
2016-11-17T05:10:50.317Z,19.47
2016-11-17T05:12:02.839Z,19.47
2016-11-17T05:13:16.396Z,19.41
2016-11-17T05:14:27.304Z,19.32
2016-11-17T05:15:40.370Z,19.31
2016-11-17T05:16:53.486Z,19.31
2016-11-17T05:18:06.499Z,19.24
2016-11-17T05:19:50.122Z,19.3
2016-11-17T05:21:03.739Z,19.24
2016-11-17T05:22:16.796Z,19.24
2016-11-17T05:23:29.839Z,19.16
2016-11-17T05:24:42.874Z,19.23
2016-11-17T05:25:56.403Z,19.31
2016-11-17T05:27:09.490Z,19.38
2016-11-17T05:28:22.533Z,19.38
2016-11-17T05:29:35.574Z,19.49
2016-11-17T05:30:48.684Z,19.44
2016-11-17T05:32:02.300Z,19.52
2016-11-17T05:33:15.905Z,19.54
2016-11-17T05:34:29.379Z,19.57
2016-11-17T05:35:42.934Z,19.59
2016-11-17T05:36:54.957Z,19.6
2016-11-17T05:38:08.574Z,19.57
2016-11-17T05:39:21.652Z,19.59
2016-11-17T05:40:34.714Z,19.57
2016-11-17T05:41:48.308Z,19.57
2016-11-17T05:43:01.380Z,19.57
2016-11-17T05:44:14.859Z,19.6
2016-11-17T05:45:28.449Z,19.53
2016-11-17T05:46:42.000Z,19.42
2016-11-17T05:47:54.990Z,19.37
2016-11-17T05:49:08.023Z,19.41
2016-11-17T05:50:21.052Z,19.3
2016-11-17T05:51:34.119Z,19.42
2016-11-17T05:52:47.636Z,19.44
2016-11-17T05:54:00.707Z,19.35
2016-11-17T05:55:13.186Z,19.34
2016-11-17T05:56:26.228Z,19.35
2016-11-17T05:57:39.284Z,19.31
2016-11-17T05:58:52.851Z,19.27
2016-11-17T06:00:05.812Z,19.26
2016-11-17T06:01:17.768Z,19.31
2016-11-17T06:02:31.365Z,19.32
2016-11-17T06:03:43.393Z,19.35
2016-11-17T06:04:55.423Z,19.24
2016-11-17T06:06:09.063Z,19.26
2016-11-17T06:07:22.084Z,19.35
2016-11-17T06:08:35.121Z,19.35
2016-11-17T06:09:48.101Z,19.35
2016-11-17T06:11:01.122Z,19.37
2016-11-17T06:12:14.163Z,19.32
2016-11-17T06:13:25.621Z,19.37
2016-11-17T06:14:38.720Z,19.41
2016-11-17T06:15:52.319Z,19.37
2016-11-17T06:17:05.398Z,19.38
2016-11-17T06:18:18.456Z,19.31
2016-11-17T06:19:30.947Z,19.31
2016-11-17T06:20:43.937Z,19.37
2016-11-17T06:21:56.410Z,19.39
2016-11-17T06:23:09.399Z,19.38
2016-11-17T06:24:22.463Z,19.41
2016-11-17T06:25:36.020Z,19.37
2016-11-17T06:26:49.055Z,19.38
2016-11-17T06:28:02.582Z,19.38
2016-11-17T06:29:15.160Z,19.37
2016-11-17T06:30:28.247Z,19.49
2016-11-17T06:32:11.836Z,19.41
2016-11-17T06:33:24.823Z,19.47
2016-11-17T06:34:37.825Z,19.44
2016-11-17T06:35:51.422Z,19.54
2016-11-17T06:37:03.940Z,19.49
2016-11-17T06:38:17.579Z,19.49
2016-11-17T06:39:31.094Z,19.54
2016-11-17T06:40:44.710Z,19.49
2016-11-17T06:41:57.710Z,19.53
2016-11-17T06:43:10.246Z,19.59
2016-11-17T06:44:23.366Z,19.56
2016-11-17T06:45:35.856Z,19.59
2016-11-17T06:46:49.548Z,19.62
2016-11-17T06:48:02.557Z,19.64
2016-11-17T06:49:15.076Z,19.64
2016-11-17T06:50:28.083Z,19.56
2016-11-17T06:51:40.056Z,19.7
2016-11-17T06:52:52.599Z,19.71
2016-11-17T06:54:06.171Z,19.62
2016-11-17T06:55:19.751Z,19.62
2016-11-17T06:56:33.305Z,19.57
2016-11-17T06:57:46.327Z,19.71
2016-11-17T06:58:59.868Z,19.7
2016-11-17T07:00:12.320Z,19.67
2016-11-17T07:01:25.352Z,19.56
2016-11-17T07:02:37.857Z,19.59
2016-11-17T07:03:51.432Z,19.42
2016-11-17T07:05:03.991Z,19.59
2016-11-17T07:06:16.503Z,19.47
2016-11-17T07:07:30.089Z,19.52
2016-11-17T07:08:42.591Z,19.52
2016-11-17T07:09:56.212Z,19.56
2016-11-17T07:11:09.206Z,19.52
2016-11-17T07:12:22.282Z,19.57
2016-11-17T07:13:35.355Z,19.47
2016-11-17T07:14:47.785Z,19.63
2016-11-17T07:16:00.389Z,19.57
2016-11-17T07:17:14.016Z,19.57
2016-11-17T07:18:57.617Z,19.57
2016-11-17T07:20:11.167Z,19.57
2016-11-17T07:21:23.132Z,19.6
2016-11-17T07:22:36.147Z,19.57
2016-11-17T07:23:49.704Z,19.57
2016-11-17T07:25:03.326Z,19.63
2016-11-17T07:26:15.827Z,19.7
2016-11-17T07:27:28.870Z,19.62
2016-11-17T07:28:41.924Z,19.59
2016-11-17T07:29:55.540Z,19.6
2016-11-17T07:32:53.283Z,19.52
2016-11-17T07:34:06.285Z,19.5
2016-11-17T07:35:18.772Z,19.45
2016-11-17T07:36:31.784Z,19.42
2016-11-17T07:37:44.875Z,19.42
2016-11-17T07:38:58.479Z,19.38
2016-11-17T07:40:11.452Z,19.41
2016-11-17T07:41:25.028Z,19.44
2016-11-17T07:42:38.048Z,19.37
2016-11-17T07:43:50.501Z,19.45
2016-11-17T07:45:03.497Z,19.38
2016-11-17T07:46:15.451Z,19.35
2016-11-17T07:47:27.429Z,19.3
2016-11-17T07:48:40.959Z,19.38
2016-11-17T07:49:54.495Z,19.41
2016-11-17T07:51:07.514Z,19.39
2016-11-17T07:52:19.990Z,19.32
2016-11-17T07:53:31.961Z,19.31
2016-11-17T07:54:44.491Z,19.39
2016-11-17T07:55:57.015Z,19.35
2016-11-17T07:57:10.587Z,19.39
2016-11-17T07:58:24.153Z,19.47
2016-11-17T08:00:07.768Z,19.42
2016-11-17T08:01:20.775Z,19.45
2016-11-17T08:02:33.873Z,19.49
2016-11-17T08:03:47.418Z,19.49
2016-11-17T08:05:00.458Z,19.57
2016-11-17T08:06:12.949Z,19.52
2016-11-17T08:07:26.473Z,19.53
2016-11-17T08:08:38.471Z,19.45
2016-11-17T08:09:51.685Z,19.52
2016-11-17T08:11:05.279Z,19.52
2016-11-17T08:12:18.323Z,19.52
2016-11-17T08:13:30.836Z,19.56
2016-11-17T08:14:43.851Z,19.54
2016-11-17T08:15:56.841Z,19.57
2016-11-17T08:17:09.372Z,19.47
2016-11-17T08:18:21.897Z,19.45
2016-11-17T08:20:06.573Z,19.45
2016-11-17T08:21:19.086Z,19.62
2016-11-17T08:22:33.016Z,19.47
2016-11-17T08:23:46.569Z,19.52
2016-11-17T08:25:31.307Z,19.54
2016-11-17T08:26:44.641Z,19.5
2016-11-17T08:27:57.724Z,19.54
2016-11-17T08:29:10.780Z,19.49
2016-11-17T08:30:23.799Z,19.5
2016-11-17T08:31:37.397Z,19.5
2016-11-17T08:32:50.996Z,19.45
2016-11-17T08:34:02.487Z,19.49
2016-11-17T08:35:15.575Z,19.6
2016-11-17T08:36:28.088Z,19.5
2016-11-17T08:37:41.107Z,19.44
2016-11-17T08:38:54.655Z,19.44
2016-11-17T08:40:07.679Z,19.47
2016-11-17T08:41:20.769Z,19.54
2016-11-17T08:42:34.354Z,19.44
2016-11-17T08:43:47.431Z,19.45
2016-11-17T08:45:00.530Z,19.47
2016-11-17T08:46:13.037Z,19.49
2016-11-17T08:47:26.589Z,19.41
2016-11-17T08:48:39.648Z,19.42
2016-11-17T08:49:52.124Z,19.54
2016-11-17T08:51:04.667Z,19.52
2016-11-17T08:52:17.726Z,19.57
2016-11-17T08:53:31.300Z,19.57
2016-11-17T08:54:44.911Z,19.64
2016-11-17T08:55:57.444Z,19.77
2016-11-17T08:57:41.647Z,19.71
2016-11-17T08:58:54.723Z,19.72
2016-11-17T09:00:07.241Z,19.67
2016-11-17T09:01:20.288Z,19.81
2016-11-17T09:02:33.852Z,19.68
2016-11-17T09:03:45.843Z,19.77
2016-11-17T09:04:58.338Z,19.77
2016-11-17T09:06:11.428Z,19.77
2016-11-17T09:07:24.523Z,19.84
2016-11-17T09:08:37.598Z,19.84
2016-11-17T09:09:50.136Z,19.82
2016-11-17T09:11:03.154Z,19.87
2016-11-17T09:12:16.174Z,19.92
2016-11-17T09:13:29.843Z,19.93
2016-11-17T09:14:41.838Z,19.93
2016-11-17T09:15:54.897Z,19.87
2016-11-17T09:17:08.441Z,19.97
2016-11-17T09:18:20.920Z,19.93
2016-11-17T09:19:34.052Z,20.04
2016-11-17T09:20:47.591Z,20.02
2016-11-17T09:22:01.139Z,20.04
2016-11-17T09:23:14.746Z,20.04
2016-11-17T09:24:27.317Z,20.11
2016-11-17T09:25:40.372Z,20.04
2016-11-17T09:26:54.001Z,20.05
2016-11-17T09:28:07.014Z,20.05
2016-11-17T09:29:20.026Z,20.09
2016-11-17T09:30:33.043Z,20.05
2016-11-17T09:31:45.498Z,20.12
2016-11-17T09:32:58.593Z,20.09
2016-11-17T09:34:12.165Z,20.19
2016-11-17T09:35:25.733Z,20.18
2016-11-17T09:36:38.722Z,20.22
2016-11-17T09:37:50.223Z,20.34
2016-11-17T09:39:02.153Z,20.19
2016-11-17T09:40:15.705Z,20.19
2016-11-17T09:41:29.244Z,20.23
2016-11-17T09:42:41.771Z,20.27
2016-11-17T09:43:55.347Z,20.33
2016-11-17T09:45:08.372Z,20.36
2016-11-17T09:46:20.842Z,20.34
2016-11-17T09:47:33.861Z,20.37
2016-11-17T09:48:46.417Z,20.48
2016-11-17T09:49:58.957Z,20.32
2016-11-17T09:51:12.520Z,20.48
2016-11-17T09:52:24.979Z,20.53
2016-11-17T09:53:38.575Z,20.49
2016-11-17T09:54:51.166Z,20.5
2016-11-17T09:56:04.240Z,20.55
2016-11-17T09:57:16.718Z,20.48
2016-11-17T09:58:30.234Z,20.5
2016-11-17T09:59:42.778Z,20.46
2016-11-17T10:00:55.350Z,20.58
2016-11-17T10:02:07.400Z,20.63
2016-11-17T10:03:19.856Z,20.67
2016-11-17T10:04:31.808Z,20.63
2016-11-17T10:05:44.367Z,20.7
2016-11-17T10:06:57.375Z,20.61
2016-11-17T10:08:09.349Z,20.64
2016-11-17T10:09:22.443Z,20.67
2016-11-17T10:10:35.451Z,20.68
2016-11-17T10:11:47.924Z,20.6
2016-11-17T10:12:59.961Z,20.65
2016-11-17T10:14:13.528Z,20.71
2016-11-17T10:15:26.584Z,20.67
2016-11-17T10:16:39.064Z,20.73
2016-11-17T10:17:51.547Z,20.68
2016-11-17T10:19:05.061Z,20.67
2016-11-17T10:20:18.127Z,20.68
2016-11-17T10:21:30.685Z,20.74
2016-11-17T10:22:43.756Z,20.74
2016-11-17T10:23:57.356Z,20.85
2016-11-17T10:25:09.326Z,20.89
2016-11-17T10:26:20.769Z,20.95
2016-11-17T10:27:33.204Z,20.98
2016-11-17T10:28:46.301Z,21.03
2016-11-17T10:29:58.844Z,21.19
2016-11-17T10:31:11.337Z,21.19
2016-11-17T10:32:24.867Z,21.16
2016-11-17T10:33:37.892Z,21.2
2016-11-17T10:34:49.846Z,21.13
2016-11-17T10:36:01.801Z,21.26
2016-11-17T10:37:15.345Z,21.19
2016-11-17T10:38:28.844Z,21.19
2016-11-17T10:39:42.434Z,21.26
2016-11-17T10:40:55.931Z,21.25
2016-11-17T10:42:08.464Z,21.3
2016-11-17T10:43:21.525Z,21.38
2016-11-17T10:44:34.572Z,21.43
2016-11-17T10:45:47.092Z,21.41
2016-11-17T10:47:00.158Z,21.5
2016-11-17T10:48:13.775Z,21.48
2016-11-17T10:49:26.230Z,21.45
2016-11-17T10:50:39.716Z,21.44
2016-11-17T10:51:52.210Z,21.45
2016-11-17T10:53:04.194Z,21.55
2016-11-17T10:54:17.260Z,21.65
2016-11-17T10:55:29.787Z,21.62
2016-11-17T10:56:42.796Z,21.77
2016-11-17T10:57:54.264Z,21.94
2016-11-17T10:59:07.858Z,22.13
2016-11-17T11:00:21.447Z,22.18
2016-11-17T11:01:33.965Z,22.19
2016-11-17T11:02:47.538Z,22.36
2016-11-17T11:04:01.049Z,22.41
2016-11-17T11:05:14.213Z,22.55
2016-11-17T11:06:26.641Z,22.56
2016-11-17T11:07:39.121Z,22.68
2016-11-17T11:08:52.743Z,22.73
2016-11-17T11:10:05.778Z,22.74
2016-11-17T11:11:18.788Z,22.76
2016-11-17T11:12:30.810Z,22.93
2016-11-17T11:13:43.302Z,23.11
2016-11-17T11:14:55.825Z,23.17
2016-11-17T11:16:09.343Z,23.28
2016-11-17T11:17:22.401Z,23.46
2016-11-17T11:18:34.416Z,23.59
2016-11-17T11:19:47.508Z,23.7
2016-11-17T11:21:00.049Z,24
2016-11-17T11:22:12.538Z,24.31
2016-11-17T11:23:25.055Z,24.84
2016-11-17T11:24:37.528Z,25.04
2016-11-17T11:25:49.994Z,24.96
2016-11-17T11:27:02.555Z,25
2016-11-17T11:28:14.995Z,25.04
2016-11-17T11:29:28.504Z,25.15
2016-11-17T11:30:41.070Z,25.36
2016-11-17T11:31:54.132Z,25.4
2016-11-17T11:33:37.745Z,25.55
2016-11-17T11:34:50.719Z,25.55
2016-11-17T11:36:02.764Z,25.63
2016-11-17T11:37:15.256Z,25.56
2016-11-17T11:38:27.809Z,25.88
2016-11-17T11:39:40.273Z,26.12
2016-11-17T11:40:53.361Z,26.27
2016-11-17T11:42:06.482Z,26.27
2016-11-17T11:43:19.035Z,26.26
2016-11-17T11:44:32.065Z,26.21
2016-11-17T11:45:44.516Z,26.15
2016-11-17T11:46:58.201Z,26.3
2016-11-17T11:48:11.312Z,26.24
2016-11-17T11:49:24.909Z,26.39
2016-11-17T11:50:37.919Z,26.53
2016-11-17T11:51:50.988Z,26.8
2016-11-17T11:53:03.502Z,27.26
2016-11-17T11:54:16.486Z,27.54
2016-11-17T11:55:28.497Z,27.22
2016-11-17T11:56:40.417Z,27
2016-11-17T11:57:53.539Z,26.8
2016-11-17T11:59:06.076Z,26.97
2016-11-17T12:00:50.196Z,27.19
2016-11-17T12:02:02.739Z,27.5
2016-11-17T12:03:15.285Z,27.82
2016-11-17T12:04:27.358Z,28.09
2016-11-17T12:05:40.999Z,28.22
2016-11-17T12:06:54.037Z,28.32
2016-11-17T12:08:06.526Z,28.52
2016-11-17T12:09:19.631Z,28.46
2016-11-17T12:10:32.233Z,28.32
2016-11-17T12:11:45.266Z,28.3
2016-11-17T12:12:57.800Z,28.44
2016-11-17T12:14:10.883Z,28.77
2016-11-17T12:15:24.418Z,29.17
2016-11-17T12:16:37.510Z,28.91
2016-11-17T12:17:50.073Z,28.72
2016-11-17T12:19:03.110Z,28.77
2016-11-17T12:20:16.171Z,28.83
2016-11-17T12:21:29.227Z,28.98
2016-11-17T12:22:41.759Z,29.13
2016-11-17T12:23:53.775Z,29.06
2016-11-17T12:25:07.519Z,28.91
2016-11-17T12:26:20.081Z,28.91
2016-11-17T12:27:32.581Z,29.02
2016-11-17T12:28:45.673Z,29.13
2016-11-17T12:29:57.770Z,29.25
2016-11-17T12:31:10.324Z,29.5
2016-11-17T12:32:22.822Z,29.81
2016-11-17T12:33:35.413Z,29.81
2016-11-17T12:34:47.453Z,29.98
2016-11-17T12:35:59.420Z,30.05
2016-11-17T12:37:11.915Z,30.11
2016-11-17T12:38:24.960Z,30.22
2016-11-17T12:39:38.089Z,29.95
2016-11-17T12:40:50.100Z,29.61
2016-11-17T12:42:02.646Z,29.15
2016-11-17T12:43:15.719Z,28.83
2016-11-17T12:44:27.132Z,28.64
2016-11-17T12:45:39.102Z,28.72
2016-11-17T12:46:51.642Z,29.12
2016-11-17T12:48:03.601Z,29.41
2016-11-17T12:49:16.671Z,29.74
2016-11-17T12:50:30.219Z,29.91
2016-11-17T12:51:43.848Z,29.62
2016-11-17T12:52:56.908Z,29.39
2016-11-17T12:54:09.894Z,29.43
2016-11-17T12:55:21.338Z,29.8
2016-11-17T12:56:33.790Z,30.14
2016-11-17T12:57:46.816Z,30.28
2016-11-17T12:58:58.842Z,30.4
2016-11-17T13:00:10.815Z,30.45
2016-11-17T13:01:22.780Z,30.56
2016-11-17T13:02:35.298Z,30.52
2016-11-17T13:03:47.783Z,30.49
2016-11-17T13:04:59.898Z,30.37
2016-11-17T13:06:12.976Z,30.1
2016-11-17T13:07:24.941Z,30.08
2016-11-17T13:08:37.458Z,30.21
2016-11-17T13:09:48.859Z,30.14
2016-11-17T13:11:01.959Z,29.8
2016-11-17T13:12:13.960Z,29.73
2016-11-17T13:13:25.923Z,29.87
2016-11-17T13:14:39.498Z,29.83
2016-11-17T13:15:52.059Z,29.84
2016-11-17T13:17:04.570Z,29.84
2016-11-17T13:18:16.615Z,29.66
2016-11-17T13:19:29.646Z,29.54
2016-11-17T13:20:42.677Z,29.65
2016-11-17T13:21:54.672Z,29.81
2016-11-17T13:23:07.240Z,29.78
2016-11-17T13:24:19.746Z,29.93
2016-11-17T13:25:32.314Z,30.18
2016-11-17T13:26:44.859Z,30.3
2016-11-17T13:27:57.384Z,30.46
2016-11-17T13:29:09.925Z,30.51
2016-11-17T13:30:22.998Z,30.68
2016-11-17T13:31:36.554Z,30.97
2016-11-17T13:32:48.509Z,31.3
2016-11-17T13:34:01.576Z,31.48
2016-11-17T13:35:14.060Z,31.52
2016-11-17T13:36:27.135Z,31.44
2016-11-17T13:37:40.765Z,31.59
2016-11-17T13:38:52.825Z,31.74
2016-11-17T13:40:05.870Z,31.67
2016-11-17T13:41:18.920Z,31.68
2016-11-17T13:42:32.054Z,31.67
2016-11-17T13:43:44.568Z,31.74
2016-11-17T13:44:57.101Z,31.63
2016-11-17T13:46:41.742Z,31.57
2016-11-17T13:48:25.345Z,31.74
2016-11-17T13:49:38.899Z,31.82
2016-11-17T13:50:51.458Z,31.97
2016-11-17T13:52:03.422Z,32.06
2016-11-17T13:53:16.987Z,32.05
2016-11-17T13:54:30.023Z,32.09
2016-11-17T13:55:41.993Z,31.63
2016-11-17T13:56:55.088Z,31.51
2016-11-17T13:58:08.087Z,31.3
2016-11-17T13:59:20.608Z,31.23
2016-11-17T14:00:33.094Z,31.07
2016-11-17T14:01:45.654Z,30.65
2016-11-17T14:02:58.656Z,30.52
2016-11-17T14:04:11.703Z,30.3
2016-11-17T14:05:24.195Z,30.2
2016-11-17T14:06:37.303Z,30.29
2016-11-17T14:07:50.357Z,30.46
2016-11-17T14:09:02.915Z,30.64
2016-11-17T14:10:16.038Z,30.56
2016-11-17T14:11:29.145Z,30.32
2016-11-17T14:12:41.625Z,30.29
2016-11-17T14:13:54.125Z,30.48
2016-11-17T14:15:06.073Z,30.56
2016-11-17T14:18:02.140Z,30.73
2016-11-17T14:19:14.618Z,30.73
2016-11-17T14:20:26.597Z,30.75
2016-11-17T14:21:39.069Z,30.88
2016-11-17T14:22:52.133Z,30.85
2016-11-17T14:24:03.637Z,31.05
2016-11-17T14:25:16.687Z,31.1
2016-11-17T14:26:30.208Z,30.95
2016-11-17T14:27:42.718Z,30.78
2016-11-17T14:28:55.720Z,30.68
2016-11-17T14:30:07.115Z,30.55
2016-11-17T14:31:18.605Z,30.36
2016-11-17T14:32:31.572Z,30.18
2016-11-17T14:33:44.574Z,30.21
2016-11-17T14:34:57.040Z,29.89
2016-11-17T14:36:10.617Z,29.83
2016-11-17T14:37:23.057Z,29.8
2016-11-17T14:38:34.477Z,29.74
2016-11-17T14:39:46.974Z,29.81
2016-11-17T14:40:59.982Z,29.83
2016-11-17T14:42:12.571Z,29.91
2016-11-17T14:43:26.167Z,29.83
2016-11-17T14:44:38.198Z,29.86
2016-11-17T14:45:51.340Z,29.76
2016-11-17T14:47:03.308Z,29.78
2016-11-17T14:48:15.819Z,29.71
2016-11-17T14:49:28.811Z,29.76
2016-11-17T14:50:41.298Z,29.76
2016-11-17T14:51:53.220Z,29.8
2016-11-17T14:53:06.254Z,29.77
2016-11-17T14:54:19.306Z,29.86
2016-11-17T14:55:32.332Z,29.93
2016-11-17T14:56:44.895Z,30.08
2016-11-17T14:57:57.407Z,30.15
2016-11-17T14:59:09.880Z,30.1
2016-11-17T15:00:22.883Z,30.08
2016-11-17T15:01:35.334Z,29.98
2016-11-17T15:02:48.381Z,29.93
2016-11-17T15:04:01.953Z,29.95
2016-11-17T15:05:13.914Z,29.95
2016-11-17T15:06:26.918Z,29.74
2016-11-17T15:07:38.906Z,29.63
2016-11-17T15:08:51.371Z,29.49
2016-11-17T15:10:03.920Z,29.63
2016-11-17T15:11:15.851Z,29.63
2016-11-17T15:12:29.337Z,29.77
2016-11-17T15:13:41.859Z,29.78
2016-11-17T15:14:55.426Z,29.78
2016-11-17T15:16:08.458Z,29.78
2016-11-17T15:17:20.425Z,29.83
2016-11-17T15:18:33.945Z,29.8
2016-11-17T15:19:46.447Z,29.65
2016-11-17T15:20:58.429Z,29.62
2016-11-17T15:22:10.438Z,29.5
2016-11-17T15:23:23.974Z,29.39
2016-11-17T15:24:36.452Z,29.41
2016-11-17T15:25:49.975Z,29.47
2016-11-17T15:27:03.559Z,29.62
2016-11-17T15:28:15.504Z,29.65
2016-11-17T15:29:28.545Z,29.8
2016-11-17T15:30:41.563Z,29.73
2016-11-17T15:31:54.556Z,29.73
2016-11-17T15:33:07.511Z,29.78
2016-11-17T15:34:20.022Z,29.76
2016-11-17T15:35:33.094Z,29.77
2016-11-17T15:36:46.115Z,29.93
2016-11-17T15:37:59.665Z,29.89
2016-11-17T15:39:12.201Z,29.89
2016-11-17T15:40:25.143Z,29.86
2016-11-17T15:41:38.291Z,29.84
2016-11-17T15:42:50.800Z,29.89
2016-11-17T15:44:03.793Z,29.81
2016-11-17T15:45:16.268Z,29.76
2016-11-17T15:46:28.871Z,29.56
2016-11-17T15:47:42.431Z,29.62
2016-11-17T15:48:54.921Z,29.59
2016-11-17T15:50:06.932Z,29.68
2016-11-17T15:51:19.958Z,29.63
2016-11-17T15:52:31.919Z,29.76
2016-11-17T15:53:44.394Z,29.76
2016-11-17T15:54:56.335Z,29.66